Time;durP1;ratioP1;P1;durP2;ratioP2;P2;SDS_P1;SDS_P2;PMS_P1;PMS_P2;Temp;Humidity;BMP_temperature;BMP_pressure;BME280_temperature;BME280_humidity;BME280_pressure;Samples;Min_cycle;Max_cycle;Signal;HPM_P1;HPM_P2
2023/06/16 00:00:11;;;;;;;19.33;17.80;;;17.40;99.90;;;;;;2608041;47;20201;-76
2023/06/16 00:02:43;;;;;;;20.43;19.23;;;17.30;99.90;;;;;;2608136;54;20154;-74
2023/06/16 00:05:10;;;;;;;19.13;18.03;;;17.20;99.90;;;;;;2610422;54;20479;-74
2023/06/16 00:07:37;;;;;;;18.23;17.23;;;17.20;99.90;;;;;;2612538;54;20423;-77
2023/06/16 00:10:06;;;;;;;18.00;17.00;;;17.10;99.90;;;;;;2612129;54;20431;-76
2023/06/16 00:12:32;;;;;;;18.37;17.23;;;17.10;99.90;;;;;;2612433;54;20483;-79
2023/06/16 00:14:58;;;;;;;18.83;17.73;;;17.10;99.90;;;;;;2613360;39;20798;-80
2023/06/16 00:17:26;;;;;;;16.90;16.00;;;17.00;99.90;;;;;;2611978;54;20423;-74
2023/06/16 00:19:53;;;;;;;19.27;18.17;;;17.00;99.90;;;;;;2612510;54;20182;-74
2023/06/16 00:22:20;;;;;;;17.43;16.50;;;16.90;99.90;;;;;;2609930;54;20515;-76
2023/06/16 00:24:46;;;;;;;16.67;15.77;;;16.70;99.90;;;;;;2608843;54;20428;-76
2023/06/16 00:27:12;;;;;;;18.50;17.50;;;16.50;99.90;;;;;;2608225;54;20422;-74
2023/06/16 00:29:40;;;;;;;17.93;16.83;;;16.50;99.90;;;;;;2607527;54;20175;-74
2023/06/16 00:32:06;;;;;;;18.23;16.63;;;16.40;99.90;;;;;;2607991;39;20804;-74
2023/06/16 00:34:32;;;;;;;17.07;16.17;;;16.40;99.90;;;;;;2608632;54;20447;-75
2023/06/16 00:36:58;;;;;;;19.03;17.83;;;16.20;99.90;;;;;;2607905;54;20404;-75
2023/06/16 00:39:24;;;;;;;17.33;16.23;;;16.20;99.90;;;;;;2608550;54;20150;-74
2023/06/16 00:41:50;;;;;;;17.03;16.03;;;16.00;99.90;;;;;;2609540;39;20890;-74
2023/06/16 00:44:16;;;;;;;17.80;16.80;;;16.00;99.90;;;;;;2608504;54;20670;-73
2023/06/16 00:46:41;;;;;;;17.20;16.10;;;15.90;99.90;;;;;;2608482;39;20505;-73
2023/06/16 00:49:07;;;;;;;18.80;17.80;;;15.80;99.90;;;;;;2608673;54;20170;-74
2023/06/16 00:51:33;;;;;;;18.20;17.10;;;15.80;99.90;;;;;;2610365;54;20786;-74
2023/06/16 00:54:00;;;;;;;16.97;15.80;;;15.80;99.90;;;;;;2612508;54;20182;-75
2023/06/16 00:56:26;;;;;;;17.13;16.00;;;15.70;99.90;;;;;;2612479;54;20202;-73
2023/06/16 00:58:53;;;;;;;20.07;16.27;;;15.60;99.90;;;;;;2612051;54;20387;-73
2023/06/16 01:01:19;;;;;;;16.50;15.57;;;15.50;99.90;;;;;;2612414;54;20165;-74
2023/06/16 01:03:46;;;;;;;16.50;15.60;;;15.50;99.90;;;;;;2612087;46;20423;-74
2023/06/16 01:06:37;;;;;;;16.00;15.10;;;15.50;99.90;;;;;;2610645;54;20454;-74
2023/06/16 01:09:09;;;;;;;17.37;16.30;;;15.30;99.90;;;;;;2608890;54;20431;-74
2023/06/16 01:12:05;;;;;;;16.77;15.70;;;15.30;99.90;;;;;;2608120;54;20415;-74
2023/06/16 01:14:37;;;;;;;16.97;15.97;;;15.20;99.90;;;;;;2608317;39;20788;-73
2023/06/16 01:17:05;;;;;;;18.10;17.00;;;15.20;99.90;;;;;;2608186;54;22266;-74
2023/06/16 01:19:44;;;;;;;16.03;15.03;;;15.10;99.90;;;;;;2607974;39;21107;-73
2023/06/16 01:22:33;;;;;;;16.20;15.20;;;15.10;99.90;;;;;;2607148;54;20429;-75
2023/06/16 01:25:03;;;;;;;17.03;15.90;;;15.10;99.90;;;;;;2607466;54;20435;-73
2023/06/16 01:27:30;;;;;;;17.20;16.20;;;15.00;99.90;;;;;;2607307;54;20400;-73
2023/06/16 01:29:58;;;;;;;15.50;14.40;;;14.90;99.90;;;;;;2606479;54;20542;-73
2023/06/16 01:32:26;;;;;;;17.33;16.23;;;14.90;99.90;;;;;;2607186;39;21507;-74
2023/06/16 01:34:54;;;;;;;16.23;15.13;;;14.80;99.90;;;;;;2607054;54;20444;-73
2023/06/16 01:37:20;;;;;;;16.70;15.33;;;14.80;99.90;;;;;;2607941;39;21382;-74
2023/06/16 01:39:48;;;;;;;17.17;15.57;;;14.80;99.90;;;;;;2606815;54;20448;-74
2023/06/16 01:42:15;;;;;;;15.70;14.80;;;14.80;99.90;;;;;;2607805;47;20467;-74
2023/06/16 01:44:43;;;;;;;16.20;15.00;;;14.80;99.90;;;;;;2607270;54;20456;-74
2023/06/16 01:47:09;;;;;;;15.57;14.53;;;14.70;99.90;;;;;;2607724;47;20510;-74
2023/06/16 01:49:35;;;;;;;16.17;14.97;;;14.70;99.90;;;;;;2608997;54;20555;-74
2023/06/16 01:52:01;;;;;;;15.37;14.47;;;14.60;99.90;;;;;;2609476;54;20421;-73
2023/06/16 01:54:27;;;;;;;15.20;14.30;;;14.60;99.90;;;;;;2610311;54;20407;-74
2023/06/16 01:56:53;;;;;;;16.97;15.70;;;14.60;99.90;;;;;;2609312;39;21081;-74
2023/06/16 01:59:18;;;;;;;16.10;15.10;;;14.60;99.90;;;;;;2610684;54;21058;-74
2023/06/16 02:01:54;;;;;;;16.73;15.67;;;14.60;99.90;;;;;;2610217;54;20142;-74
2023/06/16 02:04:23;;;;;;;17.33;15.83;;;14.70;99.90;;;;;;2609765;54;20205;-74
2023/06/16 02:07:17;;;;;;;15.30;14.40;;;14.70;99.90;;;;;;2609792;54;20437;-73
2023/06/16 02:09:44;;;;;;;15.97;14.80;;;14.70;99.90;;;;;;2610092;54;20399;-74
2023/06/16 02:12:12;;;;;;;15.73;14.63;;;14.90;99.90;;;;;;2609562;54;20450;-74
2023/06/16 02:14:40;;;;;;;15.17;14.30;;;14.90;99.90;;;;;;2608713;54;20391;-73
2023/06/16 02:17:08;;;;;;;15.20;14.30;;;14.90;99.90;;;;;;2608689;54;21417;-74
2023/06/16 02:19:34;;;;;;;16.30;15.27;;;15.00;99.90;;;;;;2608609;54;20419;-74
2023/06/16 02:22:00;;;;;;;16.40;15.20;;;15.00;99.90;;;;;;2608723;54;20420;-73
2023/06/16 02:24:27;;;;;;;17.47;15.80;;;14.90;99.90;;;;;;2609454;54;20191;-74
2023/06/16 02:26:52;;;;;;;16.80;15.60;;;14.90;99.90;;;;;;2608827;39;22164;-73
2023/06/16 02:29:18;;;;;;;16.97;15.87;;;14.90;99.90;;;;;;2608319;54;20387;-74
2023/06/16 02:31:47;;;;;;;16.00;15.00;;;14.80;99.90;;;;;;2608691;54;20198;-74
2023/06/16 02:34:14;;;;;;;15.63;14.53;;;14.70;99.90;;;;;;2608558;54;20838;-74
2023/06/16 02:36:40;;;;;;;15.80;14.90;;;14.70;99.90;;;;;;2608614;54;20408;-78
2023/06/16 02:39:07;;;;;;;15.63;14.60;;;14.60;99.90;;;;;;2609060;54;20428;-79
2023/06/16 02:41:34;;;;;;;16.00;14.47;;;14.60;99.90;;;;;;2611366;54;20419;-76
2023/06/16 02:44:00;;;;;;;16.30;15.27;;;14.40;99.90;;;;;;2611114;54;20410;-74
2023/06/16 02:46:26;;;;;;;16.93;15.83;;;14.30;99.90;;;;;;2611704;54;20428;-75
2023/06/16 02:48:51;;;;;;;17.63;16.43;;;14.40;99.90;;;;;;2612217;54;20426;-74
2023/06/16 02:51:17;;;;;;;16.40;15.03;;;14.30;99.90;;;;;;2611678;54;20154;-74
2023/06/16 02:53:45;;;;;;;16.53;15.43;;;14.20;99.90;;;;;;2613322;51;20174;-74
2023/06/16 02:56:11;;;;;;;17.13;15.93;;;14.10;99.90;;;;;;2613693;54;20898;-74
2023/06/16 02:58:38;;;;;;;16.80;15.70;;;14.00;99.90;;;;;;2613833;54;20407;-77
2023/06/16 03:01:04;;;;;;;16.73;15.43;;;13.90;99.90;;;;;;2613565;54;20419;-77
2023/06/16 03:03:31;;;;;;;17.80;16.07;;;13.80;99.90;;;;;;2612786;47;20427;-78
2023/06/16 03:06:00;;;;;;;16.50;15.50;;;13.90;99.90;;;;;;2612865;54;20988;-78
2023/06/16 03:08:27;;;;;;;16.13;14.90;;;14.00;99.90;;;;;;2611112;54;20423;-79
2023/06/16 03:10:53;;;;;;;16.10;15.10;;;13.90;99.90;;;;;;2611116;47;20434;-79
2023/06/16 03:13:19;;;;;;;15.77;14.77;;;13.70;99.90;;;;;;2609655;54;20412;-79
2023/06/16 03:15:45;;;;;;;15.80;14.80;;;13.70;99.90;;;;;;2610015;54;20507;-74
2023/06/16 03:18:11;;;;;;;16.53;15.03;;;13.70;99.90;;;;;;2609995;54;20418;-74
2023/06/16 03:20:39;;;;;;;16.23;15.03;;;13.60;99.90;;;;;;2611757;54;20146;-81
2023/06/16 03:23:05;;;;;;;18.20;16.70;;;13.60;99.90;;;;;;2612138;39;20807;-81
2023/06/16 03:25:30;;;;;;;17.00;15.80;;;13.70;99.90;;;;;;2610072;54;20526;-78
2023/06/16 03:27:57;;;;;;;17.20;15.77;;;13.70;99.90;;;;;;2610426;54;20538;-77
2023/06/16 03:30:23;;;;;;;15.93;15.03;;;13.70;99.90;;;;;;2608188;54;20190;-74
2023/06/16 03:32:49;;;;;;;16.43;15.43;;;13.80;99.90;;;;;;2609724;54;20395;-74
2023/06/16 03:35:15;;;;;;;16.43;15.30;;;13.90;99.90;;;;;;2610043;54;20434;-72
2023/06/16 03:37:41;;;;;;;17.27;16.07;;;14.00;99.90;;;;;;2609383;46;20890;-73
2023/06/16 03:40:07;;;;;;;16.37;15.07;;;14.00;99.90;;;;;;2609884;54;20399;-75
2023/06/16 03:42:33;;;;;;;16.53;15.43;;;14.00;99.90;;;;;;2608639;46;20181;-75
2023/06/16 03:44:59;;;;;;;16.90;15.60;;;13.90;99.90;;;;;;2609300;54;20434;-73
2023/06/16 03:47:26;;;;;;;17.03;15.47;;;14.00;99.90;;;;;;2609279;39;20714;-73
2023/06/16 03:49:53;;;;;;;16.20;15.20;;;14.10;99.90;;;;;;2610179;54;20411;-75
2023/06/16 03:52:18;;;;;;;16.87;15.47;;;14.10;99.90;;;;;;2609038;54;20428;-75
2023/06/16 03:54:44;;;;;;;17.07;15.87;;;14.20;99.90;;;;;;2608311;54;20482;-76
2023/06/16 03:57:10;;;;;;;16.10;14.90;;;14.20;99.90;;;;;;2608734;54;20411;-76
2023/06/16 03:59:36;;;;;;;16.90;15.80;;;14.30;99.90;;;;;;2608696;54;20277;-73
2023/06/16 04:02:07;;;;;;;17.37;16.07;;;14.30;99.90;;;;;;2609120;39;20877;-73
2023/06/16 04:04:34;;;;;;;16.93;15.90;;;14.30;99.90;;;;;;2608149;54;20154;-73
2023/06/16 04:07:00;;;;;;;17.30;16.00;;;14.40;99.90;;;;;;2608420;46;20426;-74
2023/06/16 04:09:26;;;;;;;17.17;16.07;;;14.40;99.90;;;;;;2608668;54;20454;-74
2023/06/16 04:11:52;;;;;;;17.47;16.37;;;14.50;99.90;;;;;;2608380;54;20424;-73
2023/06/16 04:14:18;;;;;;;23.87;15.73;;;14.60;99.90;;;;;;2609290;54;20440;-73
2023/06/16 04:16:44;;;;;;;18.47;17.23;;;14.70;99.90;;;;;;2608466;54;20431;-72
2023/06/16 04:19:11;;;;;;;17.47;16.13;;;14.90;99.90;;;;;;2608651;47;20254;-75
2023/06/16 04:21:37;;;;;;;17.60;16.23;;;15.10;99.90;;;;;;2609785;54;20180;-75
2023/06/16 04:24:04;;;;;;;19.83;18.20;;;15.20;99.90;;;;;;2609858;54;20396;-73
2023/06/16 04:26:32;;;;;;;23.00;21.03;;;15.30;99.90;;;;;;2609142;54;20426;-72
2023/06/16 04:29:03;;;;;;;21.53;20.03;;;15.40;99.90;;;;;;2609576;54;20416;-75
2023/06/16 04:31:30;;;;;;;18.10;16.70;;;15.70;99.90;;;;;;2609802;39;20787;-76
2023/06/16 04:34:03;;;;;;;17.83;16.73;;;15.90;99.90;;;;;;2609580;46;20447;-73
2023/06/16 04:36:30;;;;;;;18.50;17.30;;;16.10;99.90;;;;;;2608164;47;21007;-73
2023/06/16 04:38:56;;;;;;;17.87;16.30;;;16.20;99.90;;;;;;2609450;54;20416;-75
2023/06/16 04:41:23;;;;;;;18.60;17.50;;;16.50;99.90;;;;;;2609696;54;20431;-76
2023/06/16 04:43:48;;;;;;;18.57;17.47;;;16.60;99.90;;;;;;2607802;54;20416;-76
2023/06/16 04:46:14;;;;;;;18.23;16.97;;;16.80;99.90;;;;;;2608823;54;20454;-76
2023/06/16 04:48:40;;;;;;;18.37;17.20;;;16.90;99.90;;;;;;2608376;54;20163;-73
2023/06/16 04:51:06;;;;;;;17.80;16.33;;;17.10;99.90;;;;;;2609447;54;20166;-73
2023/06/16 04:53:31;;;;;;;18.07;16.90;;;17.20;99.90;;;;;;2612099;54;20522;-76
2023/06/16 04:55:57;;;;;;;20.47;18.73;;;17.20;99.90;;;;;;2612400;31;20690;-76
2023/06/16 04:58:23;;;;;;;20.20;18.63;;;17.10;99.90;;;;;;2611887;47;20249;-76
2023/06/16 05:00:50;;;;;;;20.50;19.40;;;17.20;99.90;;;;;;2610599;54;20143;-76
2023/06/16 05:03:16;;;;;;;19.70;18.40;;;17.50;99.90;;;;;;2611178;46;20173;-76
2023/06/16 05:05:42;;;;;;;21.20;19.67;;;17.70;99.90;;;;;;2612503;54;20985;-79
2023/06/16 05:08:08;;;;;;;20.40;19.20;;;18.00;99.90;;;;;;2609304;54;20442;-79
2023/06/16 05:10:33;;;;;;;19.80;18.47;;;18.20;99.90;;;;;;2610028;54;20435;-79
2023/06/16 05:13:00;;;;;;;22.07;20.37;;;18.30;98.60;;;;;;2608136;54;20747;-78
2023/06/16 05:15:26;;;;;;;21.43;20.07;;;18.40;94.60;;;;;;2608786;54;20290;-73
2023/06/16 05:17:52;;;;;;;21.13;19.43;;;18.50;99.90;;;;;;2608207;39;20893;-73
2023/06/16 05:20:17;;;;;;;21.70;20.30;;;18.80;81.60;;;;;;2609090;54;20427;-77
2023/06/16 05:22:43;;;;;;;23.70;22.00;;;19.40;58.70;;;;;;2608151;39;22069;-77
2023/06/16 05:25:09;;;;;;;22.70;21.30;;;19.40;52.60;;;;;;2608596;54;20143;-75
2023/06/16 05:27:35;;;;;;;25.53;23.63;;;19.50;48.40;;;;;;2606492;54;20159;-75
2023/06/16 05:30:01;;;;;;;23.73;22.23;;;19.70;47.70;;;;;;2608926;54;20159;-75
2023/06/16 05:32:26;;;;;;;21.67;20.27;;;19.80;44.30;;;;;;2610100;54;20162;-75
2023/06/16 05:34:52;;;;;;;21.30;20.00;;;19.80;43.00;;;;;;2611900;54;21298;-76
2023/06/16 05:37:20;;;;;;;20.57;19.23;;;20.00;39.10;;;;;;2611403;54;20194;-76
2023/06/16 05:39:46;;;;;;;22.20;21.10;;;19.90;37.80;;;;;;2611622;54;20431;-74
2023/06/16 05:42:14;;;;;;;21.33;20.07;;;20.00;37.60;;;;;;2612152;39;21293;-75
2023/06/16 05:44:40;;;;;;;20.97;19.77;;;19.80;38.10;;;;;;2612854;54;20398;-84
2023/06/16 05:47:07;;;;;;;23.20;21.50;;;20.20;33.00;;;;;;2612669;31;20866;-84
2023/06/16 05:49:33;;;;;;;20.07;18.97;;;20.10;33.10;;;;;;2611843;54;20396;-74
2023/06/16 05:51:59;;;;;;;20.53;19.30;;;20.20;30.60;;;;;;2609464;54;20438;-73
2023/06/16 05:54:25;;;;;;;20.40;19.10;;;20.60;28.10;;;;;;2607743;54;20206;-74
2023/06/16 05:56:51;;;;;;;21.20;20.07;;;21.00;24.00;;;;;;2607269;47;20424;-74
2023/06/16 05:59:17;;;;;;;21.37;19.97;;;21.30;21.80;;;;;;2601843;54;20478;-77
2023/06/16 06:01:43;;;;;;;19.73;18.70;;;21.10;19.80;;;;;;2608616;54;20167;-77
2023/06/16 06:04:11;;;;;;;19.10;18.00;;;21.40;19.60;;;;;;2608835;54;21392;-73
2023/06/16 06:06:38;;;;;;;19.60;18.50;;;21.10;19.50;;;;;;2609938;47;20254;-72
2023/06/16 06:09:04;;;;;;;20.97;19.33;;;21.90;19.50;;;;;;2610110;54;20419;-84
2023/06/16 06:11:30;;;;;;;20.57;19.47;;;21.80;16.50;;;;;;2610661;54;20420;-84
2023/06/16 06:13:56;;;;;;;21.93;20.83;;;21.70;16.70;;;;;;2612534;54;20446;-71
2023/06/16 06:16:23;;;;;;;20.97;19.87;;;21.70;15.00;;;;;;2610491;54;20423;-73
2023/06/16 06:18:49;;;;;;;21.10;19.73;;;22.10;15.10;;;;;;2607703;54;20414;-85
2023/06/16 06:21:16;;;;;;;20.90;19.80;;;22.20;13.40;;;;;;2616718;39;20846;-85
2023/06/16 06:23:41;;;;;;;20.80;19.70;;;22.50;13.70;;;;;;2615768;39;20871;-85
2023/06/16 06:26:07;;;;;;;22.23;20.13;;;22.60;12.40;;;;;;2613136;54;20407;-86
2023/06/16 06:28:33;;;;;;;21.27;20.20;;;22.20;11.70;;;;;;2613419;54;20187;-84
2023/06/16 06:30:58;;;;;;;21.70;20.30;;;22.40;10.30;;;;;;2612747;54;20162;-84
2023/06/16 06:33:24;;;;;;;21.03;20.03;;;22.40;9.50;;;;;;2612623;54;20162;-84
2023/06/16 06:35:50;;;;;;;21.87;20.47;;;23.00;6.80;;;;;;2612030;54;20178;-86
2023/06/16 06:38:28;;;;;;;20.87;19.87;;;22.60;7.80;;;;;;2612531;54;20147;-85
2023/06/16 06:40:53;;;;;;;22.40;20.47;;;22.50;8.50;;;;;;2613268;54;20209;-85
2023/06/16 06:43:19;;;;;;;21.53;20.53;;;22.50;8.60;;;;;;2613238;39;20777;-85
2023/06/16 06:45:45;;;;;;;22.57;21.37;;;22.40;8.20;;;;;;2612606;54;20293;-78
2023/06/16 06:48:11;;;;;;;20.90;19.70;;;22.70;8.80;;;;;;2613072;39;20953;-78
2023/06/16 06:50:36;;;;;;;22.77;21.33;;;22.80;9.60;;;;;;2612960;54;20459;-75
2023/06/16 06:53:02;;;;;;;21.10;20.00;;;22.90;7.50;;;;;;2611777;54;20681;-75
2023/06/16 06:55:28;;;;;;;21.37;19.87;;;22.80;9.40;;;;;;2610923;54;21431;-75
2023/06/16 06:57:54;;;;;;;21.43;20.03;;;23.40;5.90;;;;;;2610348;54;20265;-75
2023/06/16 07:00:20;;;;;;;22.90;21.70;;;23.40;4.50;;;;;;2612046;54;20278;-75
2023/06/16 07:02:46;;;;;;;20.77;19.50;;;23.40;5.10;;;;;;2612003;47;20440;-75
2023/06/16 07:05:12;;;;;;;20.10;18.90;;;24.20;3.40;;;;;;2610658;47;21001;-81
2023/06/16 07:07:37;;;;;;;20.00;18.80;;;24.00;1.20;;;;;;2608468;54;20189;-81
2023/06/16 07:10:05;;;;;;;21.70;20.50;;;24.10;1.00;;;;;;2607823;54;20262;-75
2023/06/16 07:12:31;;;;;;;21.40;19.47;;;24.10;1.00;;;;;;2608341;54;20155;-75
2023/06/16 07:14:57;;;;;;;20.57;19.47;;;24.10;1.00;;;;;;2610094;39;20973;-77
2023/06/16 07:17:22;;;;;;;21.00;20.00;;;24.20;1.00;;;;;;2607126;46;20506;-77
2023/06/16 07:19:48;;;;;;;21.60;20.40;;;24.10;1.00;;;;;;2610910;54;20221;-77
2023/06/16 07:22:14;;;;;;;19.97;18.97;;;23.30;1.00;;;;;;2610462;54;20161;-78
2023/06/16 07:24:40;;;;;;;19.93;18.67;;;23.50;1.00;;;;;;2611386;39;20552;-75
2023/06/16 07:27:06;;;;;;;20.37;19.33;;;24.10;1.00;;;;;;2612243;54;20158;-75
2023/06/16 07:29:32;;;;;;;19.67;18.33;;;24.50;1.00;;;;;;2612282;54;20163;-75
2023/06/16 07:31:58;;;;;;;19.73;18.77;;;24.30;1.00;;;;;;2609900;47;20478;-75
2023/06/16 07:34:23;;;;;;;19.40;18.40;;;24.90;1.00;;;;;;2609675;54;20174;-77
2023/06/16 07:36:49;;;;;;;17.70;16.80;;;25.00;1.00;;;;;;2609537;51;21047;-77
2023/06/16 07:39:15;;;;;;;19.07;17.97;;;24.80;1.00;;;;;;2609235;54;20158;-72
2023/06/16 07:41:41;;;;;;;18.33;17.33;;;25.10;1.00;;;;;;2606816;54;20161;-72
2023/06/16 07:44:07;;;;;;;19.13;18.07;;;25.00;1.00;;;;;;2609584;54;21202;-73
2023/06/16 07:46:33;;;;;;;19.07;18.07;;;25.10;1.00;;;;;;2610284;54;20162;-74
2023/06/16 07:48:58;;;;;;;18.80;17.90;;;24.80;1.00;;;;;;2608263;51;20171;-77
2023/06/16 07:51:25;;;;;;;18.90;17.90;;;24.70;1.00;;;;;;2607240;54;20171;-76
2023/06/16 07:53:51;;;;;;;18.87;17.77;;;24.80;1.00;;;;;;2608753;54;20182;-75
2023/06/16 07:56:18;;;;;;;17.87;17.07;;;25.50;1.00;;;;;;2606722;54;20523;-74
2023/06/16 07:58:44;;;;;;;19.60;18.40;;;25.10;1.00;;;;;;2608621;54;20467;-72
2023/06/16 08:01:10;;;;;;;17.70;16.80;;;25.70;1.00;;;;;;2607720;54;20399;-72
2023/06/16 08:03:36;;;;;;;19.10;18.20;;;26.20;1.00;;;;;;2610808;39;20785;-76
2023/06/16 08:06:03;;;;;;;18.57;17.47;;;25.70;1.00;;;;;;2610825;54;20431;-76
2023/06/16 08:08:28;;;;;;;17.90;17.00;;;25.50;1.00;;;;;;2608413;54;20181;-76
2023/06/16 08:10:58;;;;;;;18.30;17.20;;;25.20;1.00;;;;;;2608794;39;20795;-73
2023/06/16 08:13:24;;;;;;;19.87;18.93;;;25.70;1.00;;;;;;2607808;54;20150;-73
2023/06/16 08:15:50;;;;;;;18.13;17.33;;;25.70;1.00;;;;;;2608889;54;20948;-74
2023/06/16 08:18:17;;;;;;;17.90;17.00;;;24.70;1.00;;;;;;2607645;54;20414;-74
2023/06/16 08:20:45;;;;;;;17.30;16.40;;;25.00;1.00;;;;;;2611438;31;20900;-85
2023/06/16 08:23:11;;;;;;;19.07;18.07;;;26.00;1.00;;;;;;2611868;47;20431;-85
2023/06/16 08:25:37;;;;;;;19.27;18.17;;;25.70;1.00;;;;;;2609157;54;20423;-78
2023/06/16 08:28:05;;;;;;;19.13;17.90;;;26.00;1.00;;;;;;2606990;39;22286;-76
2023/06/16 08:30:31;;;;;;;17.00;16.20;;;25.90;1.00;;;;;;2606748;54;20242;-77
2023/06/16 08:32:56;;;;;;;17.07;16.27;;;26.30;1.00;;;;;;2607778;54;20434;-76
2023/06/16 08:35:22;;;;;;;17.30;16.40;;;26.90;1.00;;;;;;2606913;47;20194;-85
2023/06/16 08:37:48;;;;;;;17.73;16.67;;;26.80;1.00;;;;;;2609193;54;20171;-87
2023/06/16 08:40:13;;;;;;;17.60;16.53;;;25.40;1.00;;;;;;2609926;54;20244;-76
2023/06/16 08:42:40;;;;;;;17.03;16.23;;;26.90;1.00;;;;;;2606376;54;20250;-75
2023/06/16 08:45:09;;;;;;;16.63;15.93;;;27.10;1.00;;;;;;2608943;54;20444;-85
2023/06/16 08:47:38;;;;;;;26.07;24.47;;;26.70;1.00;;;;;;2611823;50;20447;-87
2023/06/16 08:50:08;;;;;;;17.70;16.80;;;27.30;1.00;;;;;;2611705;54;20413;-76
2023/06/16 08:52:38;;;;;;;18.43;17.53;;;27.10;1.00;;;;;;2607021;54;20407;-76
2023/06/16 08:55:08;;;;;;;17.20;16.30;;;26.90;1.00;;;;;;2609251;54;20399;-72
2023/06/16 08:57:38;;;;;;;18.03;17.07;;;27.10;1.00;;;;;;2607899;54;20459;-73
2023/06/16 09:00:08;;;;;;;17.87;17.07;;;27.00;1.00;;;;;;2608091;47;20423;-73
2023/06/16 09:02:36;;;;;;;17.30;16.60;;;27.00;1.00;;;;;;2608965;54;20415;-73
2023/06/16 09:05:03;;;;;;;17.77;16.87;;;27.20;1.00;;;;;;2610672;54;20415;-77
2023/06/16 09:07:30;;;;;;;19.70;17.93;;;27.30;1.00;;;;;;2609288;54;20407;-77
2023/06/16 09:09:56;;;;;;;17.13;16.13;;;27.70;1.00;;;;;;2610244;54;20419;-85
2023/06/16 09:12:22;;;;;;;17.93;17.13;;;27.80;1.00;;;;;;2613476;39;20886;-87
2023/06/16 09:14:51;;;;;;;17.10;16.40;;;26.60;1.00;;;;;;2612572;39;20566;-73
2023/06/16 09:17:30;;;;;;;18.47;17.47;;;27.60;1.00;;;;;;2611857;39;20801;-73
2023/06/16 09:19:56;;;;;;;18.20;17.40;;;27.40;1.00;;;;;;2609815;54;20426;-81
2023/06/16 09:22:26;;;;;;;17.70;16.90;;;27.80;1.00;;;;;;2611180;54;20403;-81
2023/06/16 09:25:04;;;;;;;18.00;16.90;;;27.20;1.00;;;;;;2611231;54;20439;-75
2023/06/16 09:27:50;;;;;;;17.87;16.80;;;27.60;1.00;;;;;;2611406;54;20408;-73
2023/06/16 09:30:20;;;;;;;18.23;17.33;;;27.80;1.00;;;;;;2609073;54;20422;-77
2023/06/16 09:32:47;;;;;;;17.93;17.13;;;27.90;1.00;;;;;;2611847;54;20928;-77
2023/06/16 09:35:24;;;;;;;18.10;17.30;;;28.20;1.00;;;;;;2611002;54;20487;-74
2023/06/16 09:37:56;;;;;;;18.47;17.67;;;28.60;1.00;;;;;;2611496;50;20421;-74
2023/06/16 09:40:32;;;;;;;18.83;17.83;;;28.50;1.00;;;;;;2611112;54;20426;-75
2023/06/16 09:42:59;;;;;;;18.80;17.80;;;28.20;1.00;;;;;;2610050;54;20404;-75
2023/06/16 09:45:32;;;;;;;17.87;17.03;;;28.80;1.00;;;;;;2611328;47;20476;-74
2023/06/16 09:48:03;;;;;;;17.73;16.83;;;27.40;1.00;;;;;;2612324;47;20424;-72
2023/06/16 09:50:30;;;;;;;17.70;16.90;;;28.00;1.00;;;;;;2609880;54;20419;-74
2023/06/16 09:52:56;;;;;;;18.33;17.53;;;27.70;1.00;;;;;;2609938;46;20567;-73
2023/06/16 09:55:27;;;;;;;17.87;16.97;;;28.00;1.00;;;;;;2610664;54;20418;-85
2023/06/16 09:57:53;;;;;;;18.27;17.37;;;27.90;1.00;;;;;;2613787;39;20771;-85
2023/06/16 10:00:20;;;;;;;18.40;17.47;;;28.30;1.00;;;;;;2611746;54;20423;-81
2023/06/16 10:02:47;;;;;;;20.30;18.67;;;28.60;1.00;;;;;;2610638;54;20451;-81
2023/06/16 10:05:15;;;;;;;21.43;19.73;;;28.90;1.00;;;;;;2610150;54;20380;-74
2023/06/16 10:07:43;;;;;;;18.10;17.10;;;29.20;1.00;;;;;;2610023;54;20427;-74
2023/06/16 10:10:11;;;;;;;17.60;16.80;;;29.10;1.00;;;;;;2610932;54;20431;-76
2023/06/16 10:12:41;;;;;;;17.87;16.90;;;28.50;1.00;;;;;;2611407;54;20466;-75
2023/06/16 10:15:10;;;;;;;18.67;17.37;;;28.20;1.00;;;;;;2610986;54;20467;-74
2023/06/16 10:17:38;;;;;;;18.47;17.60;;;28.30;1.00;;;;;;2610990;54;20404;-74
2023/06/16 10:20:08;;;;;;;17.90;17.10;;;28.40;1.00;;;;;;2609944;54;20415;-82
2023/06/16 10:22:34;;;;;;;18.63;17.60;;;28.50;1.00;;;;;;2610963;54;20506;-82
2023/06/16 10:25:02;;;;;;;18.80;17.73;;;28.80;1.00;;;;;;2610684;54;20395;-74
2023/06/16 10:27:28;;;;;;;18.10;17.20;;;28.20;1.00;;;;;;2609278;54;20407;-74
2023/06/16 10:29:56;;;;;;;18.07;17.17;;;29.30;1.00;;;;;;2608791;47;20419;-75
2023/06/16 10:32:22;;;;;;;18.10;17.10;;;29.60;1.00;;;;;;2609930;54;20146;-76
2023/06/16 10:34:51;;;;;;;17.67;16.73;;;29.40;1.00;;;;;;2611017;54;20493;-74
2023/06/16 10:37:21;;;;;;;19.43;18.33;;;29.20;1.00;;;;;;2611809;54;20158;-74
2023/06/16 10:39:47;;;;;;;18.70;17.90;;;29.20;1.00;;;;;;2609866;54;20454;-75
2023/06/16 10:42:14;;;;;;;18.83;17.83;;;29.50;1.00;;;;;;2610248;47;20992;-76
2023/06/16 10:44:42;;;;;;;19.50;18.60;;;29.00;1.00;;;;;;2608400;54;20154;-75
2023/06/16 10:47:10;;;;;;;18.97;18.17;;;29.00;1.00;;;;;;2611541;54;20396;-74
2023/06/16 10:49:57;;;;;;;19.07;17.77;;;28.90;1.00;;;;;;2611071;54;20387;-75
2023/06/16 10:52:32;;;;;;;19.13;18.20;;;29.30;1.00;;;;;;2611819;47;20507;-75
2023/06/16 10:55:14;;;;;;;18.00;17.20;;;29.30;1.00;;;;;;2610694;54;20453;-75
2023/06/16 10:57:42;;;;;;;18.60;17.70;;;28.90;1.00;;;;;;2610917;54;20455;-76
2023/06/16 11:00:12;;;;;;;17.37;16.50;;;29.10;1.00;;;;;;2611765;54;21135;-74
2023/06/16 11:02:52;;;;;;;18.00;17.20;;;28.40;1.00;;;;;;2610955;47;20438;-74
2023/06/16 11:05:22;;;;;;;19.43;18.43;;;28.00;1.00;;;;;;2611875;54;20430;-76
2023/06/16 11:08:05;;;;;;;18.37;17.47;;;27.00;1.00;;;;;;2611820;54;20431;-76
2023/06/16 11:10:46;;;;;;;18.67;17.80;;;28.70;1.00;;;;;;2610824;46;20515;-74
2023/06/16 11:13:15;;;;;;;19.70;18.80;;;28.20;1.00;;;;;;2610028;54;20387;-74
2023/06/16 11:15:44;;;;;;;18.40;17.50;;;28.30;1.00;;;;;;2610435;54;20416;-73
2023/06/16 11:18:12;;;;;;;18.60;17.80;;;29.00;1.00;;;;;;2612382;54;20426;-73
2023/06/16 11:20:39;;;;;;;19.17;18.17;;;29.50;1.00;;;;;;2611016;54;20508;-75
2023/06/16 11:23:05;;;;;;;19.40;18.30;;;29.60;1.00;;;;;;2610738;47;20427;-75
2023/06/16 11:25:31;;;;;;;18.73;17.73;;;29.60;1.00;;;;;;2609929;54;20431;-74
2023/06/16 11:27:57;;;;;;;19.60;18.60;;;29.60;1.00;;;;;;2609989;46;20430;-77
2023/06/16 11:30:24;;;;;;;19.60;18.70;;;28.60;1.00;;;;;;2610962;47;20427;-73
2023/06/16 11:32:50;;;;;;;19.27;18.30;;;27.70;1.00;;;;;;2607589;54;20899;-73
2023/06/16 11:35:17;;;;;;;19.73;18.70;;;28.40;1.00;;;;;;2609854;54;20471;-76
2023/06/16 11:37:54;;;;;;;19.43;18.53;;;29.00;1.00;;;;;;2608456;54;20431;-76
2023/06/16 11:40:20;;;;;;;20.00;19.00;;;29.20;1.00;;;;;;2609516;54;20414;-75
2023/06/16 11:43:03;;;;;;;19.80;18.53;;;29.30;1.00;;;;;;2610094;47;20434;-77
2023/06/16 11:45:38;;;;;;;18.90;18.00;;;28.80;1.00;;;;;;2609518;54;20471;-77
2023/06/16 11:48:06;;;;;;;19.97;18.87;;;28.80;1.00;;;;;;2610245;54;20411;-78
2023/06/16 11:50:33;;;;;;;20.30;19.10;;;29.20;1.00;;;;;;2611182;54;20396;-73
2023/06/16 11:52:59;;;;;;;19.93;19.03;;;29.60;1.00;;;;;;2608622;46;20504;-73
2023/06/16 11:55:25;;;;;;;19.73;18.83;;;29.60;1.00;;;;;;2608157;39;20535;-73
2023/06/16 11:57:54;;;;;;;19.90;18.97;;;30.20;1.00;;;;;;2608768;47;20423;-74
2023/06/16 12:00:21;;;;;;;19.77;18.80;;;29.50;1.00;;;;;;2609288;54;20412;-83
2023/06/16 12:02:49;;;;;;;21.40;20.30;;;29.30;1.00;;;;;;2617166;47;20439;-86
2023/06/16 12:05:25;;;;;;;20.87;19.77;;;29.40;1.00;;;;;;2610519;54;20423;-76
2023/06/16 12:07:51;;;;;;;21.00;19.70;;;29.30;1.00;;;;;;2608525;39;20847;-77
2023/06/16 12:10:17;;;;;;;21.07;19.80;;;28.40;1.00;;;;;;2610283;39;20888;-81
2023/06/16 12:12:43;;;;;;;20.53;19.53;;;28.90;1.00;;;;;;2608661;54;20418;-81
2023/06/16 12:15:16;;;;;;;21.07;19.93;;;29.30;1.00;;;;;;2608949;54;20439;-75
2023/06/16 12:17:42;;;;;;;20.03;19.03;;;29.90;1.00;;;;;;2608900;54;20501;-74
2023/06/16 12:20:15;;;;;;;18.37;17.37;;;29.50;1.00;;;;;;2611461;54;20483;-75
2023/06/16 12:22:40;;;;;;;19.53;18.63;;;28.70;1.00;;;;;;2611726;54;20151;-74
2023/06/16 12:25:14;;;;;;;20.70;19.60;;;27.90;1.00;;;;;;2611678;51;20486;-77
2023/06/16 12:27:44;;;;;;;20.30;19.20;;;27.60;1.00;;;;;;2612119;54;20162;-77
2023/06/16 12:30:31;;;;;;;20.60;19.50;;;27.20;1.00;;;;;;2612537;54;20516;-81
2023/06/16 12:32:58;;;;;;;20.83;19.83;;;28.10;1.00;;;;;;2611555;54;20419;-81